In Rescue
 
Open Full Screen Window  High Contrast Mode
March 19, 2019 6:45 PM EDT
Weather Information
Wind Direction
  ---
Wind Speed
  00 kt (0 mph)
Wind Gust
  00 kt (0 mph)
Altimeter
30.34 in
Visibility
10 SM
Temperature
10° C
50° F
Dewpoint
-09° C
16° F
Humidity
25%
1hr Rain Fall
00.00 in.
24hr Rain Fall
00.00 in.
Sky Condition
Clear
VFR

METAR KSYM 192245Z AUTO 00000KT 10SM CLR 10/M09 A3034 RMK AO2

FAA Disclaimer: The data displayed is for advisory purposes only and is not to be used for flight planning or operations.